Startpagina
METAR-TAF:

METAR-TAF

Vliegvelden :

Yellowstone Lake, Wyoming, Verenigde Staten

breedte: 44-32-40N, lengte: 110-25-16W, hoogte: 2388 m

Actueel weer

Dit bericht is 34 minuten geleden gemaakt, om 01:56 UTC
Wind 3 kt uit het noordnoordwesten
Temperatuur 18°C
Vochtigheid 45%
Druk 1029 hPa

METAR: KP60 180156Z AUTO 33003KT 18/06 A3039 RMK AO1 SLP219 T01780056

Tijdstip: 20:30 (02:30 UTC)


TAF: ontbreekt

Waarnemingen en weersverwachtingen van meer dan 4000 vliegvelden (METAR en TAF).

De beschikbare stations zijn de gele en rode punten op de kaart.

Ga met uw muis naar het station om de naam te zien.

Klik dan om waarnemingen en weersverwachtingen te zien.

kaart wijzigen: klik op de groene knoppen met een zwart kruis om in te zoomen, op de groene knop met een streepje om uit te zoomen of op de groene pijlen voor aangrenzende kaarten.


METAR-TAF: